This is the latest recevied weather packets stored in our database for station/object K6POO-1. If no packets are shown the sender has not sent any weather packets the latest 10 day(s).
| Time | Temp. | Humidity | Pressure | Rain* | Wind** | Luminosity | Snow |
|---|---|---|---|---|---|---|---|
| 1777591179 | 20° C | 54% | 1013.5 hPa | 0 mm | - | 541 W/m² | - |
| 1777590878 | 20° C | 54% | 1013.6 hPa | 0 mm | - | 557 W/m² | - |
| 1777590576 | 18.89° C | 57% | 1013.4 hPa | 0 mm | - | 575 W/m² | - |
| 1777590272 | 18.89° C | 58% | 1013.6 hPa | 0 mm | - | 594 W/m² | - |
| 1777589969 | 18.33° C | 60% | 1013.7 hPa | 0 mm | - | 612 W/m² | - |
| 1777589666 | 18.89° C | 60% | 1013.5 hPa | 0 mm | - | 629 W/m² | - |
| 1777589363 | 18.33° C | 60% | 1013.6 hPa | 0 mm | - | 646 W/m² | - |
| 1777589060 | 19.44° C | 56% | 1013.7 hPa | 0 mm | - | 662 W/m² | - |
| 1777588756 | 18.89° C | 58% | 1013.9 hPa | 0 mm | - | 680 W/m² | - |
| 1777588452 | 20.56° C | 53% | 1014 hPa | 0 mm | - | 688 W/m² | - |
| 1777588147 | 20.56° C | 51% | 1013.7 hPa | 0 mm | - | 706 W/m² | - |
| 1777587844 | 21.11° C | 51% | 1014 hPa | 0 mm | - | 721 W/m² | - |
| 1777587543 | 20.56° C | 52% | 1013.9 hPa | 0 mm | - | 737 W/m² | - |
| 1777587239 | 20.56° C | 52% | 1014 hPa | 0 mm | - | 751 W/m² | - |
| 1777586935 | 20.56° C | 51% | 1014.3 hPa | 0 mm | - | 766 W/m² | - |
| 1777586631 | 20.56° C | 51% | 1014.2 hPa | 0 mm | - | 780 W/m² | - |
| 1777586326 | 20.56° C | 50% | 1014.3 hPa | 0 mm | - | 792 W/m² | - |
| 1777586025 | 20.56° C | 51% | 1014.4 hPa | 0 mm | - | 807 W/m² | - |
| 1777585725 | 20.56° C | 52% | 1014.4 hPa | 0 mm | - | 818 W/m² | - |
| 1777585424 | 21.11° C | 49% | 1014.3 hPa | 0 mm | - | 831 W/m² | - |
| 1777585120 | 20.56° C | 47% | 1014.4 hPa | 0 mm | - | 844 W/m² | - |
| 1777584816 | 20.56° C | 50% | 1014.5 hPa | 0 mm | - | 854 W/m² | - |
| 1777584514 | 20° C | 51% | 1014.6 hPa | 0 mm | - | 864 W/m² | - |
| 1777584211 | 21.11° C | 49% | 1014.5 hPa | 0 mm | - | 876 W/m² | - |
| 1777583910 | 20.56° C | 49% | 1014.6 hPa | 0 mm | - | 885 W/m² | - |
* Rain latest hour (hover to see other rain measurements)
** Current wind speed in m/s (hover to see current wind gust speed)